sensor_id;sensor_type;location;lat;lon;timestamp;P1;durP1;ratioP1;P2;durP2;ratioP2
69358;SDS011;56520;49.066;8.660;2022-12-24T00:01:59;3.10;;;0.90;;
69358;SDS011;56520;49.066;8.660;2022-12-24T00:04:24;6.20;;;0.88;;
69358;SDS011;56520;49.066;8.660;2022-12-24T00:06:49;9.25;;;0.70;;
69358;SDS011;56520;49.066;8.660;2022-12-24T00:09:15;3.53;;;1.08;;
69358;SDS011;56520;49.066;8.660;2022-12-24T00:11:40;3.40;;;0.80;;
69358;SDS011;56520;49.066;8.660;2022-12-24T00:14:06;3.13;;;0.90;;
69358;SDS011;56520;49.066;8.660;2022-12-24T00:16:31;2.72;;;0.90;;
69358;SDS011;56520;49.066;8.660;2022-12-24T00:18:56;3.15;;;0.70;;
69358;SDS011;56520;49.066;8.660;2022-12-24T00:21:22;2.95;;;0.95;;
69358;SDS011;56520;49.066;8.660;2022-12-24T00:23:47;4.25;;;0.90;;
69358;SDS011;56520;49.066;8.660;2022-12-24T00:26:13;4.78;;;1.25;;
69358;SDS011;56520;49.066;8.660;2022-12-24T00:28:39;5.65;;;1.00;;
69358;SDS011;56520;49.066;8.660;2022-12-24T00:31:08;6.63;;;1.10;;
69358;SDS011;56520;49.066;8.660;2022-12-24T00:33:35;4.35;;;1.15;;
69358;SDS011;56520;49.066;8.660;2022-12-24T00:36:00;3.08;;;0.90;;
69358;SDS011;56520;49.066;8.660;2022-12-24T00:38:25;2.00;;;0.60;;
69358;SDS011;56520;49.066;8.660;2022-12-24T00:40:51;3.92;;;0.93;;
69358;SDS011;56520;49.066;8.660;2022-12-24T00:43:21;5.70;;;0.82;;
69358;SDS011;56520;49.066;8.660;2022-12-24T00:45:46;4.00;;;0.93;;
69358;SDS011;56520;49.066;8.660;2022-12-24T00:48:12;1.90;;;0.65;;
69358;SDS011;56520;49.066;8.660;2022-12-24T00:50:37;2.05;;;0.55;;
69358;SDS011;56520;49.066;8.660;2022-12-24T00:53:02;4.70;;;0.93;;
69358;SDS011;56520;49.066;8.660;2022-12-24T00:55:28;6.43;;;0.90;;
69358;SDS011;56520;49.066;8.660;2022-12-24T00:57:53;2.88;;;0.65;;
69358;SDS011;56520;49.066;8.660;2022-12-24T01:00:19;5.13;;;1.15;;
69358;SDS011;56520;49.066;8.660;2022-12-24T01:02:44;3.83;;;0.73;;
69358;SDS011;56520;49.066;8.660;2022-12-24T01:05:10;1.88;;;0.63;;
69358;SDS011;56520;49.066;8.660;2022-12-24T01:07:36;3.72;;;1.00;;
69358;SDS011;56520;49.066;8.660;2022-12-24T01:10:04;2.10;;;0.60;;
69358;SDS011;56520;49.066;8.660;2022-12-24T01:12:30;4.20;;;0.70;;
69358;SDS011;56520;49.066;8.660;2022-12-24T01:14:56;4.45;;;0.60;;
69358;SDS011;56520;49.066;8.660;2022-12-24T01:17:21;4.35;;;0.90;;
69358;SDS011;56520;49.066;8.660;2022-12-24T01:19:47;4.03;;;1.15;;
69358;SDS011;56520;49.066;8.660;2022-12-24T01:22:12;2.20;;;0.82;;
69358;SDS011;56520;49.066;8.660;2022-12-24T01:24:41;5.72;;;0.90;;
69358;SDS011;56520;49.066;8.660;2022-12-24T01:27:07;4.78;;;1.00;;
69358;SDS011;56520;49.066;8.660;2022-12-24T01:29:32;4.90;;;1.10;;
69358;SDS011;56520;49.066;8.660;2022-12-24T01:31:58;6.20;;;1.10;;
69358;SDS011;56520;49.066;8.660;2022-12-24T01:34:23;3.05;;;1.10;;
69358;SDS011;56520;49.066;8.660;2022-12-24T01:36:48;3.50;;;0.98;;
69358;SDS011;56520;49.066;8.660;2022-12-24T01:39:14;5.68;;;1.02;;
69358;SDS011;56520;49.066;8.660;2022-12-24T01:41:39;2.78;;;0.85;;
69358;SDS011;56520;49.066;8.660;2022-12-24T01:44:26;5.85;;;1.23;;
69358;SDS011;56520;49.066;8.660;2022-12-24T01:46:53;5.65;;;1.27;;
69358;SDS011;56520;49.066;8.660;2022-12-24T01:49:31;4.60;;;0.77;;
69358;SDS011;56520;49.066;8.660;2022-12-24T01:51:58;3.30;;;0.80;;
69358;SDS011;56520;49.066;8.660;2022-12-24T01:54:31;3.03;;;0.82;;
69358;SDS011;56520;49.066;8.660;2022-12-24T01:59:42;5.25;;;1.05;;
69358;SDS011;56520;49.066;8.660;2022-12-24T02:02:11;2.72;;;1.00;;
69358;SDS011;56520;49.066;8.660;2022-12-24T02:05:11;3.28;;;0.80;;
69358;SDS011;56520;49.066;8.660;2022-12-24T02:07:32;6.22;;;1.15;;
69358;SDS011;56520;49.066;8.660;2022-12-24T02:09:58;5.10;;;0.75;;
69358;SDS011;56520;49.066;8.660;2022-12-24T02:12:26;3.30;;;0.93;;
69358;SDS011;56520;49.066;8.660;2022-12-24T02:14:55;4.05;;;0.73;;
69358;SDS011;56520;49.066;8.660;2022-12-24T02:17:26;9.27;;;1.25;;
69358;SDS011;56520;49.066;8.660;2022-12-24T02:20:06;8.85;;;1.35;;
69358;SDS011;56520;49.066;8.660;2022-12-24T02:31:15;4.13;;;0.70;;
69358;SDS011;56520;49.066;8.660;2022-12-24T02:34:15;4.68;;;0.85;;
69358;SDS011;56520;49.066;8.660;2022-12-24T02:36:54;3.97;;;0.80;;
69358;SDS011;56520;49.066;8.660;2022-12-24T02:39:28;7.60;;;1.23;;
69358;SDS011;56520;49.066;8.660;2022-12-24T02:42:04;8.18;;;1.48;;
69358;SDS011;56520;49.066;8.660;2022-12-24T02:45:14;5.32;;;1.20;;
69358;SDS011;56520;49.066;8.660;2022-12-24T02:49:55;4.22;;;1.02;;
69358;SDS011;56520;49.066;8.660;2022-12-24T02:52:34;7.45;;;0.98;;
69358;SDS011;56520;49.066;8.660;2022-12-24T03:08:59;4.28;;;1.27;;
69358;SDS011;56520;49.066;8.660;2022-12-24T03:11:31;7.00;;;1.27;;
69358;SDS011;56520;49.066;8.660;2022-12-24T03:13:59;7.20;;;1.00;;
69358;SDS011;56520;49.066;8.660;2022-12-24T03:16:26;6.03;;;1.20;;
69358;SDS011;56520;49.066;8.660;2022-12-24T03:18:52;8.98;;;1.33;;
69358;SDS011;56520;49.066;8.660;2022-12-24T03:21:21;3.72;;;0.95;;
69358;SDS011;56520;49.066;8.660;2022-12-24T03:23:51;7.72;;;1.52;;
69358;SDS011;56520;49.066;8.660;2022-12-24T03:26:17;2.58;;;0.82;;
69358;SDS011;56520;49.066;8.660;2022-12-24T03:28:43;7.13;;;1.23;;
69358;SDS011;56520;49.066;8.660;2022-12-24T03:31:09;3.42;;;1.00;;
69358;SDS011;56520;49.066;8.660;2022-12-24T03:33:35;3.92;;;0.80;;
69358;SDS011;56520;49.066;8.660;2022-12-24T03:36:02;5.22;;;1.10;;
69358;SDS011;56520;49.066;8.660;2022-12-24T03:38:28;6.82;;;1.30;;
69358;SDS011;56520;49.066;8.660;2022-12-24T03:40:53;6.18;;;1.35;;
69358;SDS011;56520;49.066;8.660;2022-12-24T03:43:19;5.68;;;1.40;;
69358;SDS011;56520;49.066;8.660;2022-12-24T03:45:44;8.05;;;1.50;;
69358;SDS011;56520;49.066;8.660;2022-12-24T03:48:10;8.63;;;1.35;;
69358;SDS011;56520;49.066;8.660;2022-12-24T03:50:35;8.15;;;1.55;;
69358;SDS011;56520;49.066;8.660;2022-12-24T03:53:01;9.50;;;1.25;;
69358;SDS011;56520;49.066;8.660;2022-12-24T03:55:26;5.75;;;1.20;;
69358;SDS011;56520;49.066;8.660;2022-12-24T03:57:51;12.20;;;1.45;;
69358;SDS011;56520;49.066;8.660;2022-12-24T04:00:17;6.57;;;1.27;;
69358;SDS011;56520;49.066;8.660;2022-12-24T04:02:43;6.43;;;1.60;;
69358;SDS011;56520;49.066;8.660;2022-12-24T04:05:12;4.85;;;1.25;;
69358;SDS011;56520;49.066;8.660;2022-12-24T04:07:39;6.30;;;1.30;;
69358;SDS011;56520;49.066;8.660;2022-12-24T04:10:04;5.82;;;1.20;;
69358;SDS011;56520;49.066;8.660;2022-12-24T04:12:30;7.20;;;1.60;;
69358;SDS011;56520;49.066;8.660;2022-12-24T04:14:55;8.70;;;1.52;;
69358;SDS011;56520;49.066;8.660;2022-12-24T04:17:21;7.85;;;1.40;;
69358;SDS011;56520;49.066;8.660;2022-12-24T04:19:46;4.93;;;1.33;;
69358;SDS011;56520;49.066;8.660;2022-12-24T04:22:11;7.10;;;1.40;;
69358;SDS011;56520;49.066;8.660;2022-12-24T04:24:37;6.90;;;1.63;;
69358;SDS011;56520;49.066;8.660;2022-12-24T04:27:02;8.07;;;1.85;;
69358;SDS011;56520;49.066;8.660;2022-12-24T04:29:28;3.75;;;1.10;;
69358;SDS011;56520;49.066;8.660;2022-12-24T04:31:53;5.53;;;1.13;;
69358;SDS011;56520;49.066;8.660;2022-12-24T04:34:18;7.40;;;1.30;;
69358;SDS011;56520;49.066;8.660;2022-12-24T04:36:44;5.90;;;1.13;;
69358;SDS011;56520;49.066;8.660;2022-12-24T04:39:09;6.72;;;1.23;;
69358;SDS011;56520;49.066;8.660;2022-12-24T04:41:35;6.35;;;1.17;;
69358;SDS011;56520;49.066;8.660;2022-12-24T04:44:00;5.45;;;1.30;;
69358;SDS011;56520;49.066;8.660;2022-12-24T04:46:26;5.20;;;1.05;;
69358;SDS011;56520;49.066;8.660;2022-12-24T04:48:56;8.18;;;1.80;;
69358;SDS011;56520;49.066;8.660;2022-12-24T04:51:22;6.30;;;1.40;;
69358;SDS011;56520;49.066;8.660;2022-12-24T04:53:49;5.22;;;1.17;;
69358;SDS011;56520;49.066;8.660;2022-12-24T04:56:16;5.80;;;1.10;;
69358;SDS011;56520;49.066;8.660;2022-12-24T04:58:47;4.60;;;1.10;;
69358;SDS011;56520;49.066;8.660;2022-12-24T05:01:15;8.02;;;1.25;;
69358;SDS011;56520;49.066;8.660;2022-12-24T05:03:48;7.72;;;1.40;;
69358;SDS011;56520;49.066;8.660;2022-12-24T05:06:16;6.82;;;1.25;;
69358;SDS011;56520;49.066;8.660;2022-12-24T05:08:43;6.88;;;1.13;;
69358;SDS011;56520;49.066;8.660;2022-12-24T05:11:09;7.47;;;1.20;;
69358;SDS011;56520;49.066;8.660;2022-12-24T05:13:38;5.70;;;1.13;;
69358;SDS011;56520;49.066;8.660;2022-12-24T05:16:05;7.72;;;1.77;;
69358;SDS011;56520;49.066;8.660;2022-12-24T05:18:30;7.45;;;1.50;;
69358;SDS011;56520;49.066;8.660;2022-12-24T05:20:56;7.93;;;1.35;;
69358;SDS011;56520;49.066;8.660;2022-12-24T05:23:22;10.32;;;1.88;;
69358;SDS011;56520;49.066;8.660;2022-12-24T05:28:52;11.38;;;2.38;;
69358;SDS011;56520;49.066;8.660;2022-12-24T05:31:20;7.53;;;1.20;;
69358;SDS011;56520;49.066;8.660;2022-12-24T05:33:46;8.75;;;1.85;;
69358;SDS011;56520;49.066;8.660;2022-12-24T05:36:12;6.15;;;1.35;;
69358;SDS011;56520;49.066;8.660;2022-12-24T05:38:37;6.30;;;1.23;;
69358;SDS011;56520;49.066;8.660;2022-12-24T05:41:03;7.05;;;1.35;;
69358;SDS011;56520;49.066;8.660;2022-12-24T05:43:29;5.93;;;1.17;;
69358;SDS011;56520;49.066;8.660;2022-12-24T05:45:58;6.18;;;1.45;;
69358;SDS011;56520;49.066;8.660;2022-12-24T05:48:25;9.35;;;1.90;;
69358;SDS011;56520;49.066;8.660;2022-12-24T05:50:51;4.75;;;0.90;;
69358;SDS011;56520;49.066;8.660;2022-12-24T05:53:16;6.32;;;1.52;;
69358;SDS011;56520;49.066;8.660;2022-12-24T05:55:42;8.23;;;1.70;;
69358;SDS011;56520;49.066;8.660;2022-12-24T05:58:07;12.13;;;1.80;;
69358;SDS011;56520;49.066;8.660;2022-12-24T06:00:32;9.95;;;1.95;;
69358;SDS011;56520;49.066;8.660;2022-12-24T06:02:58;7.90;;;1.40;;
69358;SDS011;56520;49.066;8.660;2022-12-24T06:05:23;3.95;;;1.23;;
69358;SDS011;56520;49.066;8.660;2022-12-24T06:07:49;10.32;;;1.35;;
69358;SDS011;56520;49.066;8.660;2022-12-24T06:10:14;5.07;;;1.08;;
69358;SDS011;56520;49.066;8.660;2022-12-24T06:12:39;10.77;;;1.40;;
69358;SDS011;56520;49.066;8.660;2022-12-24T06:15:05;7.93;;;1.38;;
69358;SDS011;56520;49.066;8.660;2022-12-24T06:17:31;6.00;;;1.10;;
69358;SDS011;56520;49.066;8.660;2022-12-24T06:19:56;10.93;;;1.45;;
69358;SDS011;56520;49.066;8.660;2022-12-24T06:22:21;11.02;;;2.10;;
69358;SDS011;56520;49.066;8.660;2022-12-24T06:24:47;10.15;;;2.47;;
69358;SDS011;56520;49.066;8.660;2022-12-24T06:27:12;5.70;;;1.92;;
69358;SDS011;56520;49.066;8.660;2022-12-24T06:29:38;10.88;;;1.63;;
69358;SDS011;56520;49.066;8.660;2022-12-24T06:32:03;5.82;;;1.45;;
69358;SDS011;56520;49.066;8.660;2022-12-24T06:34:29;9.27;;;1.45;;
69358;SDS011;56520;49.066;8.660;2022-12-24T06:36:54;8.73;;;1.70;;
69358;SDS011;56520;49.066;8.660;2022-12-24T06:39:20;8.63;;;1.38;;
69358;SDS011;56520;49.066;8.660;2022-12-24T06:41:45;8.57;;;1.60;;
69358;SDS011;56520;49.066;8.660;2022-12-24T06:44:10;9.20;;;1.55;;
69358;SDS011;56520;49.066;8.660;2022-12-24T06:46:36;10.77;;;1.92;;
69358;SDS011;56520;49.066;8.660;2022-12-24T06:49:01;10.10;;;1.77;;
69358;SDS011;56520;49.066;8.660;2022-12-24T06:51:27;5.38;;;1.30;;
69358;SDS011;56520;49.066;8.660;2022-12-24T06:53:55;12.50;;;1.80;;
69358;SDS011;56520;49.066;8.660;2022-12-24T06:56:21;12.23;;;2.03;;
69358;SDS011;56520;49.066;8.660;2022-12-24T06:58:46;5.45;;;1.50;;
69358;SDS011;56520;49.066;8.660;2022-12-24T07:01:12;9.55;;;1.60;;
69358;SDS011;56520;49.066;8.660;2022-12-24T07:03:39;10.73;;;1.38;;
69358;SDS011;56520;49.066;8.660;2022-12-24T07:06:05;7.65;;;1.60;;
69358;SDS011;56520;49.066;8.660;2022-12-24T07:08:31;9.02;;;1.80;;
69358;SDS011;56520;49.066;8.660;2022-12-24T07:11:00;9.80;;;1.98;;
69358;SDS011;56520;49.066;8.660;2022-12-24T07:13:26;8.40;;;1.70;;
69358;SDS011;56520;49.066;8.660;2022-12-24T07:15:57;7.72;;;1.63;;
69358;SDS011;56520;49.066;8.660;2022-12-24T07:18:24;4.80;;;1.48;;
69358;SDS011;56520;49.066;8.660;2022-12-24T07:20:50;7.13;;;2.30;;
69358;SDS011;56520;49.066;8.660;2022-12-24T07:23:15;6.72;;;1.15;;
69358;SDS011;56520;49.066;8.660;2022-12-24T07:25:41;8.48;;;1.58;;
69358;SDS011;56520;49.066;8.660;2022-12-24T07:28:07;11.30;;;1.30;;
69358;SDS011;56520;49.066;8.660;2022-12-24T07:30:32;9.02;;;1.92;;
69358;SDS011;56520;49.066;8.660;2022-12-24T07:32:57;8.77;;;1.42;;
69358;SDS011;56520;49.066;8.660;2022-12-24T07:35:23;6.47;;;1.15;;
69358;SDS011;56520;49.066;8.660;2022-12-24T07:37:48;9.07;;;1.75;;
69358;SDS011;56520;49.066;8.660;2022-12-24T07:40:14;7.97;;;1.20;;
69358;SDS011;56520;49.066;8.660;2022-12-24T07:42:39;9.25;;;1.75;;
69358;SDS011;56520;49.066;8.660;2022-12-24T07:45:04;9.98;;;2.03;;
69358;SDS011;56520;49.066;8.660;2022-12-24T07:47:30;11.68;;;2.47;;
69358;SDS011;56520;49.066;8.660;2022-12-24T07:49:56;8.75;;;1.50;;
69358;SDS011;56520;49.066;8.660;2022-12-24T07:52:21;8.35;;;1.80;;
69358;SDS011;56520;49.066;8.660;2022-12-24T07:54:47;9.40;;;1.70;;
69358;SDS011;56520;49.066;8.660;2022-12-24T07:57:12;4.57;;;1.33;;
69358;SDS011;56520;49.066;8.660;2022-12-24T07:59:37;9.90;;;2.33;;
69358;SDS011;56520;49.066;8.660;2022-12-24T08:02:03;7.65;;;1.60;;
69358;SDS011;56520;49.066;8.660;2022-12-24T08:04:30;7.75;;;1.65;;
69358;SDS011;56520;49.066;8.660;2022-12-24T08:06:57;10.32;;;2.80;;
69358;SDS011;56520;49.066;8.660;2022-12-24T08:09:22;6.85;;;1.33;;
69358;SDS011;56520;49.066;8.660;2022-12-24T08:11:48;7.50;;;1.42;;
69358;SDS011;56520;49.066;8.660;2022-12-24T08:14:13;7.07;;;1.52;;
69358;SDS011;56520;49.066;8.660;2022-12-24T08:16:39;7.97;;;1.75;;
69358;SDS011;56520;49.066;8.660;2022-12-24T08:19:04;12.38;;;1.90;;
69358;SDS011;56520;49.066;8.660;2022-12-24T08:21:29;10.63;;;1.65;;
69358;SDS011;56520;49.066;8.660;2022-12-24T08:23:55;7.22;;;1.98;;
69358;SDS011;56520;49.066;8.660;2022-12-24T08:26:20;8.90;;;1.70;;
69358;SDS011;56520;49.066;8.660;2022-12-24T08:28:46;8.52;;;1.50;;
69358;SDS011;56520;49.066;8.660;2022-12-24T08:31:11;10.23;;;1.83;;
69358;SDS011;56520;49.066;8.660;2022-12-24T08:33:36;5.18;;;1.02;;
69358;SDS011;56520;49.066;8.660;2022-12-24T08:36:02;8.73;;;1.70;;
69358;SDS011;56520;49.066;8.660;2022-12-24T08:38:28;9.32;;;1.35;;
69358;SDS011;56520;49.066;8.660;2022-12-24T08:40:53;7.78;;;1.50;;
69358;SDS011;56520;49.066;8.660;2022-12-24T08:43:19;8.48;;;1.80;;
69358;SDS011;56520;49.066;8.660;2022-12-24T08:45:45;7.43;;;1.40;;
69358;SDS011;56520;49.066;8.660;2022-12-24T08:48:12;10.98;;;1.60;;
69358;SDS011;56520;49.066;8.660;2022-12-24T08:50:38;8.05;;;1.52;;
69358;SDS011;56520;49.066;8.660;2022-12-24T08:53:04;9.40;;;1.65;;
69358;SDS011;56520;49.066;8.660;2022-12-24T08:55:30;9.57;;;1.80;;
69358;SDS011;56520;49.066;8.660;2022-12-24T08:57:55;14.25;;;2.58;;
69358;SDS011;56520;49.066;8.660;2022-12-24T09:00:20;8.38;;;1.65;;
69358;SDS011;56520;49.066;8.660;2022-12-24T09:02:46;6.47;;;1.35;;
69358;SDS011;56520;49.066;8.660;2022-12-24T09:05:11;6.32;;;1.42;;
69358;SDS011;56520;49.066;8.660;2022-12-24T09:07:36;11.20;;;1.58;;
69358;SDS011;56520;49.066;8.660;2022-12-24T09:10:03;12.98;;;1.65;;
69358;SDS011;56520;49.066;8.660;2022-12-24T09:12:28;8.43;;;1.33;;
69358;SDS011;56520;49.066;8.660;2022-12-24T09:14:54;8.98;;;1.40;;
69358;SDS011;56520;49.066;8.660;2022-12-24T09:17:20;7.72;;;1.50;;
69358;SDS011;56520;49.066;8.660;2022-12-24T09:19:45;7.72;;;1.73;;
69358;SDS011;56520;49.066;8.660;2022-12-24T09:22:11;7.45;;;1.40;;
69358;SDS011;56520;49.066;8.660;2022-12-24T09:24:36;7.03;;;1.30;;
69358;SDS011;56520;49.066;8.660;2022-12-24T09:27:02;9.68;;;1.77;;
69358;SDS011;56520;49.066;8.660;2022-12-24T09:29:28;8.68;;;1.63;;
69358;SDS011;56520;49.066;8.660;2022-12-24T09:31:54;4.55;;;1.33;;
69358;SDS011;56520;49.066;8.660;2022-12-24T09:34:20;6.65;;;1.00;;
69358;SDS011;56520;49.066;8.660;2022-12-24T09:36:45;8.07;;;1.05;;
69358;SDS011;56520;49.066;8.660;2022-12-24T09:39:11;6.97;;;1.23;;
69358;SDS011;56520;49.066;8.660;2022-12-24T09:46:56;9.45;;;1.60;;
69358;SDS011;56520;49.066;8.660;2022-12-24T09:49:28;7.25;;;1.40;;
69358;SDS011;56520;49.066;8.660;2022-12-24T09:52:13;7.25;;;1.70;;
69358;SDS011;56520;49.066;8.660;2022-12-24T09:54:55;7.32;;;1.33;;
69358;SDS011;56520;49.066;8.660;2022-12-24T09:57:29;8.95;;;1.77;;
69358;SDS011;56520;49.066;8.660;2022-12-24T09:59:58;8.13;;;1.88;;
69358;SDS011;56520;49.066;8.660;2022-12-24T10:02:23;6.18;;;1.20;;
69358;SDS011;56520;49.066;8.660;2022-12-24T10:04:49;8.10;;;1.55;;
69358;SDS011;56520;49.066;8.660;2022-12-24T10:07:19;8.18;;;1.83;;
69358;SDS011;56520;49.066;8.660;2022-12-24T10:18:42;5.95;;;1.05;;
69358;SDS011;56520;49.066;8.660;2022-12-24T10:21:42;9.32;;;1.30;;
69358;SDS011;56520;49.066;8.660;2022-12-24T10:24:18;5.93;;;1.45;;
69358;SDS011;56520;49.066;8.660;2022-12-24T10:26:56;5.88;;;1.30;;
69358;SDS011;56520;49.066;8.660;2022-12-24T10:29:27;8.45;;;1.40;;
69358;SDS011;56520;49.066;8.660;2022-12-24T10:34:52;4.18;;;1.15;;
69358;SDS011;56520;49.066;8.660;2022-12-24T10:37:23;11.15;;;1.75;;
69358;SDS011;56520;49.066;8.660;2022-12-24T10:39:54;12.57;;;2.13;;
69358;SDS011;56520;49.066;8.660;2022-12-24T10:42:21;6.25;;;1.30;;
69358;SDS011;56520;49.066;8.660;2022-12-24T10:44:49;8.32;;;1.42;;
69358;SDS011;56520;49.066;8.660;2022-12-24T10:47:18;12.27;;;1.95;;
69358;SDS011;56520;49.066;8.660;2022-12-24T10:49:47;9.98;;;1.35;;
69358;SDS011;56520;49.066;8.660;2022-12-24T10:52:41;6.45;;;1.38;;
69358;SDS011;56520;49.066;8.660;2022-12-24T10:55:20;9.60;;;1.70;;
69358;SDS011;56520;49.066;8.660;2022-12-24T10:58:00;5.00;;;1.15;;
69358;SDS011;56520;49.066;8.660;2022-12-24T11:00:28;6.13;;;1.48;;
69358;SDS011;56520;49.066;8.660;2022-12-24T11:03:19;6.82;;;1.13;;
69358;SDS011;56520;49.066;8.660;2022-12-24T11:05:58;6.55;;;1.25;;
69358;SDS011;56520;49.066;8.660;2022-12-24T11:08:31;5.97;;;1.45;;
69358;SDS011;56520;49.066;8.660;2022-12-24T11:10:59;8.07;;;1.90;;
69358;SDS011;56520;49.066;8.660;2022-12-24T11:13:45;10.18;;;1.63;;
69358;SDS011;56520;49.066;8.660;2022-12-24T11:18:54;4.72;;;1.20;;
69358;SDS011;56520;49.066;8.660;2022-12-24T11:21:28;7.30;;;1.50;;
69358;SDS011;56520;49.066;8.660;2022-12-24T11:26:29;8.20;;;1.75;;
69358;SDS011;56520;49.066;8.660;2022-12-24T11:29:28;5.60;;;1.55;;
69358;SDS011;56520;49.066;8.660;2022-12-24T11:31:48;8.93;;;1.73;;
69358;SDS011;56520;49.066;8.660;2022-12-24T11:37:15;8.13;;;1.70;;
69358;SDS011;56520;49.066;8.660;2022-12-24T11:39:52;10.20;;;1.33;;
69358;SDS011;56520;49.066;8.660;2022-12-24T11:42:35;8.43;;;1.52;;
69358;SDS011;56520;49.066;8.660;2022-12-24T11:45:04;3.85;;;1.27;;
69358;SDS011;56520;49.066;8.660;2022-12-24T11:47:51;5.55;;;1.52;;
69358;SDS011;56520;49.066;8.660;2022-12-24T11:50:24;6.20;;;1.35;;
69358;SDS011;56520;49.066;8.660;2022-12-24T12:01:19;7.93;;;1.50;;
69358;SDS011;56520;49.066;8.660;2022-12-24T12:09:12;11.35;;;2.17;;
69358;SDS011;56520;49.066;8.660;2022-12-24T12:11:42;9.13;;;1.85;;
69358;SDS011;56520;49.066;8.660;2022-12-24T12:14:16;9.25;;;1.90;;
69358;SDS011;56520;49.066;8.660;2022-12-24T12:19:54;6.55;;;1.42;;
69358;SDS011;56520;49.066;8.660;2022-12-24T12:22:32;9.70;;;2.08;;
69358;SDS011;56520;49.066;8.660;2022-12-24T12:25:04;10.40;;;2.55;;
69358;SDS011;56520;49.066;8.660;2022-12-24T12:30:15;9.02;;;1.80;;
69358;SDS011;56520;49.066;8.660;2022-12-24T12:35:40;7.15;;;1.33;;
69358;SDS011;56520;49.066;8.660;2022-12-24T12:38:12;7.18;;;1.58;;
69358;SDS011;56520;49.066;8.660;2022-12-24T12:46:33;7.43;;;1.98;;
69358;SDS011;56520;49.066;8.660;2022-12-24T12:55:29;8.82;;;1.95;;
69358;SDS011;56520;49.066;8.660;2022-12-24T12:58:00;8.80;;;1.65;;
69358;SDS011;56520;49.066;8.660;2022-12-24T13:00:30;7.53;;;1.60;;
69358;SDS011;56520;49.066;8.660;2022-12-24T13:08:16;7.07;;;1.42;;
69358;SDS011;56520;49.066;8.660;2022-12-24T13:22:39;5.15;;;1.05;;
69358;SDS011;56520;49.066;8.660;2022-12-24T13:25:20;8.32;;;2.20;;
69358;SDS011;56520;49.066;8.660;2022-12-24T13:27:50;4.45;;;1.60;;
69358;SDS011;56520;49.066;8.660;2022-12-24T13:30:35;7.88;;;1.85;;
69358;SDS011;56520;49.066;8.660;2022-12-24T13:33:03;4.93;;;1.33;;
69358;SDS011;56520;49.066;8.660;2022-12-24T13:35:33;7.50;;;1.52;;
69358;SDS011;56520;49.066;8.660;2022-12-24T13:40:53;8.35;;;1.63;;
69358;SDS011;56520;49.066;8.660;2022-12-24T13:43:19;7.60;;;1.38;;
69358;SDS011;56520;49.066;8.660;2022-12-24T13:45:48;7.07;;;1.35;;
69358;SDS011;56520;49.066;8.660;2022-12-24T13:50:48;7.65;;;1.73;;
69358;SDS011;56520;49.066;8.660;2022-12-24T13:58:42;5.47;;;1.50;;
69358;SDS011;56520;49.066;8.660;2022-12-24T14:01:14;6.55;;;1.40;;
69358;SDS011;56520;49.066;8.660;2022-12-24T14:03:50;6.47;;;1.63;;
69358;SDS011;56520;49.066;8.660;2022-12-24T14:08:51;10.95;;;1.70;;
69358;SDS011;56520;49.066;8.660;2022-12-24T14:11:20;5.10;;;1.58;;
69358;SDS011;56520;49.066;8.660;2022-12-24T14:16:27;4.82;;;1.30;;
69358;SDS011;56520;49.066;8.660;2022-12-24T14:19:11;4.93;;;1.63;;
69358;SDS011;56520;49.066;8.660;2022-12-24T14:24:33;7.47;;;1.80;;
69358;SDS011;56520;49.066;8.660;2022-12-24T14:27:11;6.78;;;1.70;;
69358;SDS011;56520;49.066;8.660;2022-12-24T14:29:45;4.38;;;1.20;;
69358;SDS011;56520;49.066;8.660;2022-12-24T14:32:19;4.63;;;1.52;;
69358;SDS011;56520;49.066;8.660;2022-12-24T14:34:45;4.75;;;1.30;;
69358;SDS011;56520;49.066;8.660;2022-12-24T14:37:11;5.38;;;1.40;;
69358;SDS011;56520;49.066;8.660;2022-12-24T14:39:45;4.78;;;1.00;;
69358;SDS011;56520;49.066;8.660;2022-12-24T14:47:42;5.95;;;1.33;;
69358;SDS011;56520;49.066;8.660;2022-12-24T14:53:15;7.67;;;1.73;;
69358;SDS011;56520;49.066;8.660;2022-12-24T14:55:52;11.02;;;1.55;;
69358;SDS011;56520;49.066;8.660;2022-12-24T14:58:30;4.68;;;1.40;;
69358;SDS011;56520;49.066;8.660;2022-12-24T15:01:42;6.60;;;1.58;;
69358;SDS011;56520;49.066;8.660;2022-12-24T15:06:28;5.07;;;1.23;;
69358;SDS011;56520;49.066;8.660;2022-12-24T15:08:56;6.07;;;1.42;;
69358;SDS011;56520;49.066;8.660;2022-12-24T15:11:22;4.43;;;1.08;;
69358;SDS011;56520;49.066;8.660;2022-12-24T15:13:49;3.05;;;0.90;;
69358;SDS011;56520;49.066;8.660;2022-12-24T15:16:24;4.18;;;1.25;;
69358;SDS011;56520;49.066;8.660;2022-12-24T15:18:55;4.43;;;1.08;;
69358;SDS011;56520;49.066;8.660;2022-12-24T15:21:24;4.47;;;1.08;;
69358;SDS011;56520;49.066;8.660;2022-12-24T15:23:54;4.38;;;1.40;;
69358;SDS011;56520;49.066;8.660;2022-12-24T15:28:54;5.15;;;1.70;;
69358;SDS011;56520;49.066;8.660;2022-12-24T15:31:22;17.05;;;5.85;;
69358;SDS011;56520;49.066;8.660;2022-12-24T15:33:50;15.82;;;4.38;;
69358;SDS011;56520;49.066;8.660;2022-12-24T15:39:00;8.93;;;2.45;;
69358;SDS011;56520;49.066;8.660;2022-12-24T15:42:01;5.80;;;1.73;;
69358;SDS011;56520;49.066;8.660;2022-12-24T15:47:05;9.38;;;2.03;;
69358;SDS011;56520;49.066;8.660;2022-12-24T15:49:32;4.28;;;1.40;;
69358;SDS011;56520;49.066;8.660;2022-12-24T15:52:06;6.85;;;1.45;;
69358;SDS011;56520;49.066;8.660;2022-12-24T15:54:34;5.13;;;1.58;;
69358;SDS011;56520;49.066;8.660;2022-12-24T15:57:10;6.43;;;1.80;;
69358;SDS011;56520;49.066;8.660;2022-12-24T15:59:38;9.50;;;4.35;;
69358;SDS011;56520;49.066;8.660;2022-12-24T16:02:17;9.85;;;3.15;;
69358;SDS011;56520;49.066;8.660;2022-12-24T16:04:51;8.13;;;2.03;;
69358;SDS011;56520;49.066;8.660;2022-12-24T16:07:23;6.93;;;1.80;;
69358;SDS011;56520;49.066;8.660;2022-12-24T16:09:50;4.25;;;1.33;;
69358;SDS011;56520;49.066;8.660;2022-12-24T16:12:19;4.93;;;1.70;;
69358;SDS011;56520;49.066;8.660;2022-12-24T16:14:52;6.20;;;1.73;;
69358;SDS011;56520;49.066;8.660;2022-12-24T16:17:25;5.13;;;1.70;;
69358;SDS011;56520;49.066;8.660;2022-12-24T16:19:55;8.73;;;1.90;;
69358;SDS011;56520;49.066;8.660;2022-12-24T16:22:26;6.60;;;2.25;;
69358;SDS011;56520;49.066;8.660;2022-12-24T16:25:07;8.35;;;2.58;;
69358;SDS011;56520;49.066;8.660;2022-12-24T16:27:51;7.22;;;2.50;;
69358;SDS011;56520;49.066;8.660;2022-12-24T16:30:18;7.20;;;2.58;;
69358;SDS011;56520;49.066;8.660;2022-12-24T16:32:43;8.75;;;2.47;;
69358;SDS011;56520;49.066;8.660;2022-12-24T16:35:29;7.28;;;2.50;;
69358;SDS011;56520;49.066;8.660;2022-12-24T16:37:57;6.10;;;2.00;;
69358;SDS011;56520;49.066;8.660;2022-12-24T16:40:22;5.80;;;2.47;;
69358;SDS011;56520;49.066;8.660;2022-12-24T16:42:48;6.53;;;2.15;;
69358;SDS011;56520;49.066;8.660;2022-12-24T16:45:32;7.65;;;2.75;;
69358;SDS011;56520;49.066;8.660;2022-12-24T16:48:00;17.38;;;7.10;;
69358;SDS011;56520;49.066;8.660;2022-12-24T16:50:26;18.70;;;7.72;;
69358;SDS011;56520;49.066;8.660;2022-12-24T16:52:51;16.65;;;6.70;;
69358;SDS011;56520;49.066;8.660;2022-12-24T16:55:16;18.48;;;5.80;;
69358;SDS011;56520;49.066;8.660;2022-12-24T16:57:42;16.08;;;6.30;;
69358;SDS011;56520;49.066;8.660;2022-12-24T17:00:13;12.80;;;5.13;;
69358;SDS011;56520;49.066;8.660;2022-12-24T17:02:44;15.05;;;5.55;;
69358;SDS011;56520;49.066;8.660;2022-12-24T17:05:10;15.80;;;6.18;;
69358;SDS011;56520;49.066;8.660;2022-12-24T17:07:35;22.20;;;8.93;;
69358;SDS011;56520;49.066;8.660;2022-12-24T17:10:01;20.13;;;8.57;;
69358;SDS011;56520;49.066;8.660;2022-12-24T17:12:27;17.23;;;8.10;;
69358;SDS011;56520;49.066;8.660;2022-12-24T17:14:52;17.30;;;7.50;;
69358;SDS011;56520;49.066;8.660;2022-12-24T17:17:24;12.32;;;6.45;;
69358;SDS011;56520;49.066;8.660;2022-12-24T17:19:52;13.73;;;6.60;;
69358;SDS011;56520;49.066;8.660;2022-12-24T17:22:18;12.52;;;6.00;;